Galveston, Indiana
Current Conditions -  °F | °C
As of 7:58 AM on Friday 19 Dec 2014 (Local Time) from KGUS Reporting Station
Overcast Overcast  
Wind Chill: 20°   Ceiling: 2200
Heat Index: 26°   Visibility: 10mi
Dew Point: 25°   Wind: 5mph
Humidity: 98%   Direction: 300°WNW
Pressure: 30.27"   Gusts: NA
Location:  40.58°N, 86.19°W
Report Text: KGUS 191258Z AUTO 30004KT 10SM OVC022 M03/M04 A3027 RMK AO2 SLP265 T10341037 TSNO
Loading
Personal Weather Stations






























Interactive Weather Map New forecast layout! Learn more

10-Day Weather Forecast

Advertisements
Track Severe Weather on mobile